sensor_id;sensor_type;location;lat;lon;timestamp;temperature;humidity
12287;DHT22;6206;53.100;11.098;2022-08-19T00:01:18;21.60;99.90
12287;DHT22;6206;53.100;11.098;2022-08-19T00:03:46;21.60;99.90
12287;DHT22;6206;53.100;11.098;2022-08-19T00:06:13;21.20;99.90
12287;DHT22;6206;53.100;11.098;2022-08-19T00:08:40;22.00;99.90
12287;DHT22;6206;53.100;11.098;2022-08-19T00:11:07;21.50;99.90
12287;DHT22;6206;53.100;11.098;2022-08-19T00:13:34;21.00;99.90
12287;DHT22;6206;53.100;11.098;2022-08-19T00:16:01;20.90;99.90
12287;DHT22;6206;53.100;11.098;2022-08-19T00:18:28;22.90;99.90
12287;DHT22;6206;53.100;11.098;2022-08-19T00:20:56;21.40;99.90
12287;DHT22;6206;53.100;11.098;2022-08-19T00:23:23;20.80;99.90
12287;DHT22;6206;53.100;11.098;2022-08-19T00:25:49;21.60;99.90
12287;DHT22;6206;53.100;11.098;2022-08-19T00:28:17;22.70;99.90
12287;DHT22;6206;53.100;11.098;2022-08-19T00:30:44;20.90;99.90
12287;DHT22;6206;53.100;11.098;2022-08-19T00:33:10;20.80;99.90
12287;DHT22;6206;53.100;11.098;2022-08-19T00:35:39;21.40;99.90
12287;DHT22;6206;53.100;11.098;2022-08-19T00:38:07;20.80;99.90
12287;DHT22;6206;53.100;11.098;2022-08-19T00:40:33;20.80;99.90
12287;DHT22;6206;53.100;11.098;2022-08-19T00:43:00;20.80;99.90
12287;DHT22;6206;53.100;11.098;2022-08-19T00:45:28;21.00;99.90
12287;DHT22;6206;53.100;11.098;2022-08-19T00:47:56;20.70;99.90
12287;DHT22;6206;53.100;11.098;2022-08-19T00:50:23;20.90;99.90
12287;DHT22;6206;53.100;11.098;2022-08-19T00:52:51;21.00;99.90
12287;DHT22;6206;53.100;11.098;2022-08-19T00:55:22;21.30;99.90
12287;DHT22;6206;53.100;11.098;2022-08-19T00:57:53;21.20;99.90
12287;DHT22;6206;53.100;11.098;2022-08-19T01:00:22;22.70;99.90
12287;DHT22;6206;53.100;11.098;2022-08-19T01:02:49;20.90;99.90
12287;DHT22;6206;53.100;11.098;2022-08-19T01:05:19;22.40;99.90
12287;DHT22;6206;53.100;11.098;2022-08-19T01:07:47;22.10;99.90
12287;DHT22;6206;53.100;11.098;2022-08-19T01:10:16;20.80;99.90
12287;DHT22;6206;53.100;11.098;2022-08-19T01:12:46;21.30;99.90
12287;DHT22;6206;53.100;11.098;2022-08-19T01:15:16;23.20;99.90
12287;DHT22;6206;53.100;11.098;2022-08-19T01:17:43;21.00;99.90
12287;DHT22;6206;53.100;11.098;2022-08-19T01:20:12;20.60;99.90
12287;DHT22;6206;53.100;11.098;2022-08-19T01:22:44;21.30;99.90
12287;DHT22;6206;53.100;11.098;2022-08-19T01:25:12;21.90;99.90
12287;DHT22;6206;53.100;11.098;2022-08-19T01:27:39;20.80;99.90
12287;DHT22;6206;53.100;11.098;2022-08-19T01:30:08;22.30;99.90
12287;DHT22;6206;53.100;11.098;2022-08-19T01:32:35;20.70;99.90
12287;DHT22;6206;53.100;11.098;2022-08-19T01:35:03;21.70;99.90
12287;DHT22;6206;53.100;11.098;2022-08-19T01:37:43;20.50;99.90
12287;DHT22;6206;53.100;11.098;2022-08-19T01:40:10;20.40;99.90
12287;DHT22;6206;53.100;11.098;2022-08-19T01:42:37;20.50;99.90
12287;DHT22;6206;53.100;11.098;2022-08-19T01:45:05;22.00;99.90
12287;DHT22;6206;53.100;11.098;2022-08-19T01:47:33;20.60;99.90
12287;DHT22;6206;53.100;11.098;2022-08-19T01:50:00;21.10;99.90
12287;DHT22;6206;53.100;11.098;2022-08-19T01:52:27;22.90;99.90
12287;DHT22;6206;53.100;11.098;2022-08-19T01:54:55;20.60;99.90
12287;DHT22;6206;53.100;11.098;2022-08-19T01:57:22;20.50;99.90
12287;DHT22;6206;53.100;11.098;2022-08-19T01:59:49;20.40;99.90
12287;DHT22;6206;53.100;11.098;2022-08-19T02:02:17;23.00;99.90
12287;DHT22;6206;53.100;11.098;2022-08-19T02:04:43;21.00;99.90
12287;DHT22;6206;53.100;11.098;2022-08-19T02:07:11;20.40;99.90
12287;DHT22;6206;53.100;11.098;2022-08-19T02:09:38;21.60;99.90
12287;DHT22;6206;53.100;11.098;2022-08-19T02:12:07;21.80;99.90
12287;DHT22;6206;53.100;11.098;2022-08-19T02:14:34;20.40;99.90
12287;DHT22;6206;53.100;11.098;2022-08-19T02:17:01;20.00;99.90
12287;DHT22;6206;53.100;11.098;2022-08-19T02:19:28;20.90;99.90
12287;DHT22;6206;53.100;11.098;2022-08-19T02:21:59;20.40;99.90
12287;DHT22;6206;53.100;11.098;2022-08-19T02:24:27;20.60;99.90
12287;DHT22;6206;53.100;11.098;2022-08-19T02:26:54;20.80;99.90
12287;DHT22;6206;53.100;11.098;2022-08-19T02:29:21;20.70;99.90
12287;DHT22;6206;53.100;11.098;2022-08-19T02:31:48;20.40;99.90
12287;DHT22;6206;53.100;11.098;2022-08-19T02:34:16;20.30;99.90
12287;DHT22;6206;53.100;11.098;2022-08-19T02:36:43;21.70;99.90
12287;DHT22;6206;53.100;11.098;2022-08-19T02:39:09;20.10;99.90
12287;DHT22;6206;53.100;11.098;2022-08-19T02:41:35;21.00;99.90
12287;DHT22;6206;53.100;11.098;2022-08-19T02:44:03;20.00;99.90
12287;DHT22;6206;53.100;11.098;2022-08-19T02:46:34;21.80;99.90
12287;DHT22;6206;53.100;11.098;2022-08-19T02:49:04;20.00;99.90
12287;DHT22;6206;53.100;11.098;2022-08-19T02:51:34;20.60;99.90
12287;DHT22;6206;53.100;11.098;2022-08-19T02:54:05;21.70;99.90
12287;DHT22;6206;53.100;11.098;2022-08-19T02:56:34;20.10;99.90
12287;DHT22;6206;53.100;11.098;2022-08-19T02:59:02;22.60;99.90
12287;DHT22;6206;53.100;11.098;2022-08-19T03:01:35;22.40;99.90
12287;DHT22;6206;53.100;11.098;2022-08-19T03:04:05;21.30;99.90
12287;DHT22;6206;53.100;11.098;2022-08-19T03:06:33;20.90;99.90
12287;DHT22;6206;53.100;11.098;2022-08-19T03:09:02;20.10;99.90
12287;DHT22;6206;53.100;11.098;2022-08-19T03:11:30;20.10;99.90
12287;DHT22;6206;53.100;11.098;2022-08-19T03:13:58;22.80;99.90
12287;DHT22;6206;53.100;11.098;2022-08-19T03:16:28;22.50;99.90
12287;DHT22;6206;53.100;11.098;2022-08-19T03:18:57;20.30;99.90
12287;DHT22;6206;53.100;11.098;2022-08-19T03:21:26;21.20;99.90
12287;DHT22;6206;53.100;11.098;2022-08-19T03:23:54;20.10;99.90
12287;DHT22;6206;53.100;11.098;2022-08-19T03:26:21;21.20;99.90
12287;DHT22;6206;53.100;11.098;2022-08-19T03:28:47;20.20;99.90
12287;DHT22;6206;53.100;11.098;2022-08-19T03:31:16;20.20;99.90
12287;DHT22;6206;53.100;11.098;2022-08-19T03:33:44;22.60;99.90
12287;DHT22;6206;53.100;11.098;2022-08-19T03:36:14;21.60;99.90
12287;DHT22;6206;53.100;11.098;2022-08-19T03:38:44;22.40;99.90
12287;DHT22;6206;53.100;11.098;2022-08-19T03:41:13;20.50;99.90
12287;DHT22;6206;53.100;11.098;2022-08-19T03:43:41;22.40;99.90
12287;DHT22;6206;53.100;11.098;2022-08-19T03:46:11;21.60;99.90
12287;DHT22;6206;53.100;11.098;2022-08-19T03:48:40;20.20;99.90
12287;DHT22;6206;53.100;11.098;2022-08-19T03:51:07;20.30;99.90
12287;DHT22;6206;53.100;11.098;2022-08-19T03:53:35;19.90;99.90
12287;DHT22;6206;53.100;11.098;2022-08-19T03:56:02;22.60;99.90
12287;DHT22;6206;53.100;11.098;2022-08-19T03:58:29;19.80;99.90
12287;DHT22;6206;53.100;11.098;2022-08-19T04:00:56;19.60;99.90
12287;DHT22;6206;53.100;11.098;2022-08-19T04:03:23;20.40;99.90
12287;DHT22;6206;53.100;11.098;2022-08-19T04:05:49;20.90;99.90
12287;DHT22;6206;53.100;11.098;2022-08-19T04:08:16;21.80;99.90
12287;DHT22;6206;53.100;11.098;2022-08-19T04:10:48;19.60;99.90
12287;DHT22;6206;53.100;11.098;2022-08-19T04:13:15;19.60;99.90
12287;DHT22;6206;53.100;11.098;2022-08-19T04:15:44;19.60;99.90
12287;DHT22;6206;53.100;11.098;2022-08-19T04:18:12;20.80;99.90
12287;DHT22;6206;53.100;11.098;2022-08-19T04:20:43;21.40;99.90
12287;DHT22;6206;53.100;11.098;2022-08-19T04:23:10;19.80;99.90
12287;DHT22;6206;53.100;11.098;2022-08-19T04:25:38;20.80;99.90
12287;DHT22;6206;53.100;11.098;2022-08-19T04:28:08;19.90;99.90
12287;DHT22;6206;53.100;11.098;2022-08-19T04:30:40;21.10;99.90
12287;DHT22;6206;53.100;11.098;2022-08-19T04:33:07;22.00;99.90
12287;DHT22;6206;53.100;11.098;2022-08-19T04:35:36;19.90;99.90
12287;DHT22;6206;53.100;11.098;2022-08-19T04:38:03;21.60;99.90
12287;DHT22;6206;53.100;11.098;2022-08-19T04:40:30;20.50;99.90
12287;DHT22;6206;53.100;11.098;2022-08-19T04:43:16;21.60;99.90
12287;DHT22;6206;53.100;11.098;2022-08-19T04:45:43;21.90;99.90
12287;DHT22;6206;53.100;11.098;2022-08-19T04:48:10;22.20;99.90
12287;DHT22;6206;53.100;11.098;2022-08-19T04:50:40;22.30;99.90
12287;DHT22;6206;53.100;11.098;2022-08-19T04:53:08;20.00;99.90
12287;DHT22;6206;53.100;11.098;2022-08-19T04:55:37;21.40;99.90
12287;DHT22;6206;53.100;11.098;2022-08-19T04:58:04;21.40;99.90
12287;DHT22;6206;53.100;11.098;2022-08-19T05:00:33;20.30;99.90
12287;DHT22;6206;53.100;11.098;2022-08-19T05:02:59;20.70;99.90
12287;DHT22;6206;53.100;11.098;2022-08-19T05:05:27;20.30;99.90
12287;DHT22;6206;53.100;11.098;2022-08-19T05:07:54;21.60;99.90
12287;DHT22;6206;53.100;11.098;2022-08-19T05:10:21;21.10;99.90
12287;DHT22;6206;53.100;11.098;2022-08-19T05:12:48;20.90;99.90
12287;DHT22;6206;53.100;11.098;2022-08-19T05:15:14;19.80;99.90
12287;DHT22;6206;53.100;11.098;2022-08-19T05:17:42;20.00;99.90
12287;DHT22;6206;53.100;11.098;2022-08-19T05:20:29;20.90;99.90
12287;DHT22;6206;53.100;11.098;2022-08-19T05:23:13;21.60;99.90
12287;DHT22;6206;53.100;11.098;2022-08-19T05:25:41;20.60;99.90
12287;DHT22;6206;53.100;11.098;2022-08-19T05:28:08;19.80;99.90
12287;DHT22;6206;53.100;11.098;2022-08-19T05:30:35;19.70;99.90
12287;DHT22;6206;53.100;11.098;2022-08-19T05:33:03;19.70;99.90
12287;DHT22;6206;53.100;11.098;2022-08-19T05:35:30;19.80;99.90
12287;DHT22;6206;53.100;11.098;2022-08-19T05:37:57;19.70;99.90
12287;DHT22;6206;53.100;11.098;2022-08-19T05:40:23;20.40;99.90
12287;DHT22;6206;53.100;11.098;2022-08-19T05:42:50;19.70;99.90
12287;DHT22;6206;53.100;11.098;2022-08-19T05:45:19;19.70;99.90
12287;DHT22;6206;53.100;11.098;2022-08-19T05:47:47;21.20;99.90
12287;DHT22;6206;53.100;11.098;2022-08-19T05:50:15;19.80;99.90
12287;DHT22;6206;53.100;11.098;2022-08-19T05:52:42;20.50;99.90
12287;DHT22;6206;53.100;11.098;2022-08-19T05:55:10;21.10;99.90
12287;DHT22;6206;53.100;11.098;2022-08-19T05:57:37;19.70;99.90
12287;DHT22;6206;53.100;11.098;2022-08-19T06:00:05;19.80;99.90
12287;DHT22;6206;53.100;11.098;2022-08-19T06:02:35;19.70;99.90
12287;DHT22;6206;53.100;11.098;2022-08-19T06:05:03;20.90;99.90
12287;DHT22;6206;53.100;11.098;2022-08-19T06:07:33;19.70;99.90
12287;DHT22;6206;53.100;11.098;2022-08-19T06:09:59;20.20;99.90
12287;DHT22;6206;53.100;11.098;2022-08-19T06:12:26;19.80;99.90
12287;DHT22;6206;53.100;11.098;2022-08-19T06:15:00;19.60;99.90
12287;DHT22;6206;53.100;11.098;2022-08-19T06:17:27;20.70;99.90
12287;DHT22;6206;53.100;11.098;2022-08-19T06:19:55;19.40;99.90
12287;DHT22;6206;53.100;11.098;2022-08-19T06:22:22;19.70;99.90
12287;DHT22;6206;53.100;11.098;2022-08-19T06:24:50;22.80;99.90
12287;DHT22;6206;53.100;11.098;2022-08-19T06:27:18;21.80;99.90
12287;DHT22;6206;53.100;11.098;2022-08-19T06:29:44;19.60;99.90
12287;DHT22;6206;53.100;11.098;2022-08-19T06:32:14;19.70;99.90
12287;DHT22;6206;53.100;11.098;2022-08-19T06:34:42;20.80;99.90
12287;DHT22;6206;53.100;11.098;2022-08-19T06:37:09;19.70;99.90
12287;DHT22;6206;53.100;11.098;2022-08-19T06:39:38;21.70;99.90
12287;DHT22;6206;53.100;11.098;2022-08-19T06:42:07;20.20;99.90
12287;DHT22;6206;53.100;11.098;2022-08-19T06:44:38;21.80;99.90
12287;DHT22;6206;53.100;11.098;2022-08-19T06:47:07;19.70;99.90
12287;DHT22;6206;53.100;11.098;2022-08-19T06:49:35;19.80;99.90
12287;DHT22;6206;53.100;11.098;2022-08-19T06:52:03;21.40;99.90
12287;DHT22;6206;53.100;11.098;2022-08-19T06:54:30;19.90;99.90
12287;DHT22;6206;53.100;11.098;2022-08-19T06:56:58;20.10;99.90
12287;DHT22;6206;53.100;11.098;2022-08-19T06:59:29;20.60;99.90
12287;DHT22;6206;53.100;11.098;2022-08-19T07:01:59;20.60;99.90
12287;DHT22;6206;53.100;11.098;2022-08-19T07:04:29;21.60;99.90
12287;DHT22;6206;53.100;11.098;2022-08-19T07:06:58;20.10;99.90
12287;DHT22;6206;53.100;11.098;2022-08-19T07:09:25;20.30;99.90
12287;DHT22;6206;53.100;11.098;2022-08-19T07:11:53;20.60;99.90
12287;DHT22;6206;53.100;11.098;2022-08-19T07:14:22;20.90;99.90
12287;DHT22;6206;53.100;11.098;2022-08-19T07:16:53;20.00;99.90
12287;DHT22;6206;53.100;11.098;2022-08-19T07:19:22;20.00;99.90
12287;DHT22;6206;53.100;11.098;2022-08-19T07:21:51;20.00;99.90
12287;DHT22;6206;53.100;11.098;2022-08-19T07:24:18;21.80;99.90
12287;DHT22;6206;53.100;11.098;2022-08-19T07:26:45;20.30;99.90
12287;DHT22;6206;53.100;11.098;2022-08-19T07:29:12;20.30;99.90
12287;DHT22;6206;53.100;11.098;2022-08-19T07:31:39;20.60;99.90
12287;DHT22;6206;53.100;11.098;2022-08-19T07:34:10;22.40;99.90
12287;DHT22;6206;53.100;11.098;2022-08-19T07:36:42;20.30;99.90
12287;DHT22;6206;53.100;11.098;2022-08-19T07:39:10;21.90;99.90
12287;DHT22;6206;53.100;11.098;2022-08-19T07:41:37;20.90;99.90
12287;DHT22;6206;53.100;11.098;2022-08-19T07:44:05;20.40;99.90
12287;DHT22;6206;53.100;11.098;2022-08-19T07:46:35;20.40;99.90
12287;DHT22;6206;53.100;11.098;2022-08-19T07:49:03;20.50;99.90
12287;DHT22;6206;53.100;11.098;2022-08-19T07:51:31;21.70;99.90
12287;DHT22;6206;53.100;11.098;2022-08-19T07:53:58;22.20;99.90
12287;DHT22;6206;53.100;11.098;2022-08-19T07:56:25;20.60;99.90
12287;DHT22;6206;53.100;11.098;2022-08-19T07:58:52;21.70;99.90
12287;DHT22;6206;53.100;11.098;2022-08-19T08:01:21;20.70;99.90
12287;DHT22;6206;53.100;11.098;2022-08-19T08:03:49;21.70;99.90
12287;DHT22;6206;53.100;11.098;2022-08-19T08:06:34;21.80;99.90
12287;DHT22;6206;53.100;11.098;2022-08-19T08:09:22;21.70;99.90
12287;DHT22;6206;53.100;11.098;2022-08-19T08:11:51;20.60;99.90
12287;DHT22;6206;53.100;11.098;2022-08-19T08:14:23;20.90;99.90
12287;DHT22;6206;53.100;11.098;2022-08-19T08:16:50;20.60;99.90
12287;DHT22;6206;53.100;11.098;2022-08-19T08:19:17;20.60;99.90
12287;DHT22;6206;53.100;11.098;2022-08-19T08:21:46;20.50;99.90
12287;DHT22;6206;53.100;11.098;2022-08-19T08:24:13;20.40;99.90
12287;DHT22;6206;53.100;11.098;2022-08-19T08:26:40;20.40;99.90
12287;DHT22;6206;53.100;11.098;2022-08-19T08:29:07;21.10;99.90
12287;DHT22;6206;53.100;11.098;2022-08-19T08:31:37;21.00;99.90
12287;DHT22;6206;53.100;11.098;2022-08-19T08:34:03;20.70;99.90
12287;DHT22;6206;53.100;11.098;2022-08-19T08:36:30;22.90;99.90
12287;DHT22;6206;53.100;11.098;2022-08-19T08:39:00;20.50;99.90
12287;DHT22;6206;53.100;11.098;2022-08-19T08:41:33;20.50;99.90
12287;DHT22;6206;53.100;11.098;2022-08-19T08:44:02;22.20;99.90
12287;DHT22;6206;53.100;11.098;2022-08-19T08:46:35;22.50;99.90
12287;DHT22;6206;53.100;11.098;2022-08-19T08:49:11;20.90;99.90
12287;DHT22;6206;53.100;11.098;2022-08-19T08:51:43;20.30;99.90
12287;DHT22;6206;53.100;11.098;2022-08-19T08:54:13;21.00;99.90
12287;DHT22;6206;53.100;11.098;2022-08-19T08:56:41;21.30;99.90
12287;DHT22;6206;53.100;11.098;2022-08-19T08:59:20;20.60;99.90
12287;DHT22;6206;53.100;11.098;2022-08-19T09:01:47;21.10;99.90
12287;DHT22;6206;53.100;11.098;2022-08-19T09:04:15;20.60;99.90
12287;DHT22;6206;53.100;11.098;2022-08-19T09:06:49;20.60;99.90
12287;DHT22;6206;53.100;11.098;2022-08-19T09:09:22;20.80;99.90
12287;DHT22;6206;53.100;11.098;2022-08-19T09:11:58;21.40;99.90
12287;DHT22;6206;53.100;11.098;2022-08-19T09:14:35;20.40;99.90
12287;DHT22;6206;53.100;11.098;2022-08-19T09:17:07;20.50;99.90
12287;DHT22;6206;53.100;11.098;2022-08-19T09:19:34;20.80;99.90
12287;DHT22;6206;53.100;11.098;2022-08-19T09:22:01;20.50;99.90
12287;DHT22;6206;53.100;11.098;2022-08-19T09:24:29;21.90;99.90
12287;DHT22;6206;53.100;11.098;2022-08-19T09:26:56;20.50;99.90
12287;DHT22;6206;53.100;11.098;2022-08-19T09:29:23;20.70;99.90
12287;DHT22;6206;53.100;11.098;2022-08-19T09:31:49;20.80;99.90
12287;DHT22;6206;53.100;11.098;2022-08-19T09:34:16;21.00;99.90
12287;DHT22;6206;53.100;11.098;2022-08-19T09:36:45;22.20;99.90
12287;DHT22;6206;53.100;11.098;2022-08-19T09:39:11;22.30;99.90
12287;DHT22;6206;53.100;11.098;2022-08-19T09:41:39;20.80;99.90
12287;DHT22;6206;53.100;11.098;2022-08-19T09:44:06;21.20;99.90
12287;DHT22;6206;53.100;11.098;2022-08-19T09:46:33;21.00;99.90
12287;DHT22;6206;53.100;11.098;2022-08-19T09:49:01;22.90;99.90
12287;DHT22;6206;53.100;11.098;2022-08-19T09:51:31;22.70;99.90
12287;DHT22;6206;53.100;11.098;2022-08-19T09:54:00;21.30;99.90
12287;DHT22;6206;53.100;11.098;2022-08-19T09:56:29;21.30;99.90
12287;DHT22;6206;53.100;11.098;2022-08-19T09:58:59;21.20;99.90
12287;DHT22;6206;53.100;11.098;2022-08-19T10:01:27;21.30;99.90
12287;DHT22;6206;53.100;11.098;2022-08-19T10:03:56;21.10;99.90
12287;DHT22;6206;53.100;11.098;2022-08-19T10:06:25;21.20;99.90
12287;DHT22;6206;53.100;11.098;2022-08-19T10:08:54;21.40;99.90
12287;DHT22;6206;53.100;11.098;2022-08-19T10:11:22;21.30;99.90
12287;DHT22;6206;53.100;11.098;2022-08-19T10:13:49;21.90;99.90
12287;DHT22;6206;53.100;11.098;2022-08-19T10:16:19;21.40;99.90
12287;DHT22;6206;53.100;11.098;2022-08-19T10:18:47;21.40;99.90
12287;DHT22;6206;53.100;11.098;2022-08-19T10:21:16;22.60;99.90
12287;DHT22;6206;53.100;11.098;2022-08-19T10:23:45;21.30;99.90
12287;DHT22;6206;53.100;11.098;2022-08-19T10:26:14;21.50;99.90
12287;DHT22;6206;53.100;11.098;2022-08-19T10:28:42;21.40;99.90
12287;DHT22;6206;53.100;11.098;2022-08-19T10:31:11;22.30;99.90
12287;DHT22;6206;53.100;11.098;2022-08-19T10:33:39;21.60;99.90
12287;DHT22;6206;53.100;11.098;2022-08-19T10:36:09;21.20;99.90
12287;DHT22;6206;53.100;11.098;2022-08-19T10:38:37;21.30;99.90
12287;DHT22;6206;53.100;11.098;2022-08-19T10:41:09;21.40;99.90
12287;DHT22;6206;53.100;11.098;2022-08-19T10:43:36;22.10;99.90
12287;DHT22;6206;53.100;11.098;2022-08-19T10:46:04;21.60;99.90
12287;DHT22;6206;53.100;11.098;2022-08-19T10:48:31;21.50;99.90
12287;DHT22;6206;53.100;11.098;2022-08-19T10:50:59;21.60;99.90
12287;DHT22;6206;53.100;11.098;2022-08-19T10:53:43;21.90;99.90
12287;DHT22;6206;53.100;11.098;2022-08-19T10:56:10;21.50;99.90
12287;DHT22;6206;53.100;11.098;2022-08-19T10:58:54;21.50;99.90
12287;DHT22;6206;53.100;11.098;2022-08-19T11:01:23;22.10;99.90
12287;DHT22;6206;53.100;11.098;2022-08-19T11:03:50;21.40;99.90
12287;DHT22;6206;53.100;11.098;2022-08-19T11:06:19;21.60;99.90
12287;DHT22;6206;53.100;11.098;2022-08-19T11:08:46;21.70;99.90
12287;DHT22;6206;53.100;11.098;2022-08-19T11:11:13;21.50;99.90
12287;DHT22;6206;53.100;11.098;2022-08-19T11:13:40;19.10;99.90
12287;DHT22;6206;53.100;11.098;2022-08-19T11:16:10;22.00;99.90
12287;DHT22;6206;53.100;11.098;2022-08-19T11:18:41;23.10;99.90
12287;DHT22;6206;53.100;11.098;2022-08-19T11:21:11;21.80;99.90
12287;DHT22;6206;53.100;11.098;2022-08-19T11:23:40;22.40;99.90
12287;DHT22;6206;53.100;11.098;2022-08-19T11:26:06;21.40;99.90
12287;DHT22;6206;53.100;11.098;2022-08-19T11:28:33;21.50;99.90
12287;DHT22;6206;53.100;11.098;2022-08-19T11:31:00;21.80;99.90
12287;DHT22;6206;53.100;11.098;2022-08-19T11:33:28;21.80;99.90
12287;DHT22;6206;53.100;11.098;2022-08-19T11:35:57;21.70;99.90
12287;DHT22;6206;53.100;11.098;2022-08-19T11:38:24;21.80;99.90
12287;DHT22;6206;53.100;11.098;2022-08-19T11:40:56;21.80;99.90
12287;DHT22;6206;53.100;11.098;2022-08-19T11:43:23;21.90;99.90
12287;DHT22;6206;53.100;11.098;2022-08-19T11:45:52;22.00;99.90
12287;DHT22;6206;53.100;11.098;2022-08-19T11:48:18;22.00;99.90
12287;DHT22;6206;53.100;11.098;2022-08-19T11:50:47;22.20;99.90
12287;DHT22;6206;53.100;11.098;2022-08-19T11:53:14;22.50;99.90
12287;DHT22;6206;53.100;11.098;2022-08-19T11:55:41;22.50;99.90
12287;DHT22;6206;53.100;11.098;2022-08-19T11:58:09;22.20;99.90
12287;DHT22;6206;53.100;11.098;2022-08-19T12:00:37;23.00;99.90
12287;DHT22;6206;53.100;11.098;2022-08-19T12:03:04;22.80;99.90
12287;DHT22;6206;53.100;11.098;2022-08-19T12:05:31;22.90;99.90
12287;DHT22;6206;53.100;11.098;2022-08-19T12:07:57;23.00;99.90
12287;DHT22;6206;53.100;11.098;2022-08-19T12:10:24;23.10;99.90
12287;DHT22;6206;53.100;11.098;2022-08-19T12:12:51;23.00;99.90
12287;DHT22;6206;53.100;11.098;2022-08-19T12:15:19;22.50;99.90
12287;DHT22;6206;53.100;11.098;2022-08-19T12:17:46;23.90;99.90
12287;DHT22;6206;53.100;11.098;2022-08-19T12:20:13;22.20;99.90
12287;DHT22;6206;53.100;11.098;2022-08-19T12:22:41;22.00;99.90
12287;DHT22;6206;53.100;11.098;2022-08-19T12:25:09;22.00;99.90
12287;DHT22;6206;53.100;11.098;2022-08-19T12:27:36;22.20;99.90
12287;DHT22;6206;53.100;11.098;2022-08-19T12:30:04;22.10;99.90
12287;DHT22;6206;53.100;11.098;2022-08-19T12:32:33;22.60;99.90
12287;DHT22;6206;53.100;11.098;2022-08-19T12:34:59;22.90;99.90
12287;DHT22;6206;53.100;11.098;2022-08-19T12:37:26;23.10;99.90
12287;DHT22;6206;53.100;11.098;2022-08-19T12:39:53;22.80;99.90
12287;DHT22;6206;53.100;11.098;2022-08-19T12:42:19;23.00;99.90
12287;DHT22;6206;53.100;11.098;2022-08-19T12:44:47;22.90;99.90
12287;DHT22;6206;53.100;11.098;2022-08-19T12:47:14;22.60;99.90
12287;DHT22;6206;53.100;11.098;2022-08-19T12:49:43;22.30;99.90
12287;DHT22;6206;53.100;11.098;2022-08-19T12:52:12;23.00;99.90
12287;DHT22;6206;53.100;11.098;2022-08-19T12:54:40;22.10;99.90
12287;DHT22;6206;53.100;11.098;2022-08-19T12:57:09;23.20;99.90
12287;DHT22;6206;53.100;11.098;2022-08-19T12:59:37;22.20;99.90
12287;DHT22;6206;53.100;11.098;2022-08-19T13:02:05;22.30;99.90
12287;DHT22;6206;53.100;11.098;2022-08-19T13:04:33;22.50;99.90
12287;DHT22;6206;53.100;11.098;2022-08-19T13:07:03;22.80;99.90
12287;DHT22;6206;53.100;11.098;2022-08-19T13:09:30;22.00;99.90
12287;DHT22;6206;53.100;11.098;2022-08-19T13:11:57;22.10;99.90
12287;DHT22;6206;53.100;11.098;2022-08-19T13:14:23;22.00;99.90
12287;DHT22;6206;53.100;11.098;2022-08-19T13:16:50;22.00;99.90
12287;DHT22;6206;53.100;11.098;2022-08-19T13:19:17;21.80;99.90
12287;DHT22;6206;53.100;11.098;2022-08-19T13:21:49;21.80;99.90
12287;DHT22;6206;53.100;11.098;2022-08-19T13:24:18;21.90;99.90
12287;DHT22;6206;53.100;11.098;2022-08-19T13:26:44;21.60;99.90
12287;DHT22;6206;53.100;11.098;2022-08-19T13:29:11;21.70;99.90
12287;DHT22;6206;53.100;11.098;2022-08-19T13:31:56;21.80;99.90
12287;DHT22;6206;53.100;11.098;2022-08-19T13:34:40;21.90;99.90
12287;DHT22;6206;53.100;11.098;2022-08-19T13:37:06;22.20;99.90
12287;DHT22;6206;53.100;11.098;2022-08-19T13:39:35;22.10;99.90
12287;DHT22;6206;53.100;11.098;2022-08-19T13:42:03;23.10;99.90
12287;DHT22;6206;53.100;11.098;2022-08-19T13:44:30;21.90;99.90
12287;DHT22;6206;53.100;11.098;2022-08-19T13:47:00;22.00;99.90
12287;DHT22;6206;53.100;11.098;2022-08-19T13:49:31;24.40;99.90
12287;DHT22;6206;53.100;11.098;2022-08-19T13:51:58;22.90;99.90
12287;DHT22;6206;53.100;11.098;2022-08-19T13:54:24;22.20;99.90
12287;DHT22;6206;53.100;11.098;2022-08-19T13:56:53;22.40;99.90
12287;DHT22;6206;53.100;11.098;2022-08-19T13:59:20;22.30;99.90
12287;DHT22;6206;53.100;11.098;2022-08-19T14:01:47;22.20;99.90
12287;DHT22;6206;53.100;11.098;2022-08-19T14:04:13;22.80;99.90
12287;DHT22;6206;53.100;11.098;2022-08-19T14:06:40;22.10;99.90
12287;DHT22;6206;53.100;11.098;2022-08-19T14:09:07;22.40;99.90
12287;DHT22;6206;53.100;11.098;2022-08-19T14:11:33;22.60;99.90
12287;DHT22;6206;53.100;11.098;2022-08-19T14:14:01;22.60;99.90
12287;DHT22;6206;53.100;11.098;2022-08-19T14:16:28;22.70;99.90
12287;DHT22;6206;53.100;11.098;2022-08-19T14:18:55;22.80;99.90
12287;DHT22;6206;53.100;11.098;2022-08-19T14:21:23;22.90;99.90
12287;DHT22;6206;53.100;11.098;2022-08-19T14:23:50;23.00;99.90
12287;DHT22;6206;53.100;11.098;2022-08-19T14:26:18;22.90;99.90
12287;DHT22;6206;53.100;11.098;2022-08-19T14:28:46;23.30;99.90
12287;DHT22;6206;53.100;11.098;2022-08-19T14:31:15;22.80;99.90
12287;DHT22;6206;53.100;11.098;2022-08-19T14:33:45;22.90;99.90
12287;DHT22;6206;53.100;11.098;2022-08-19T14:36:11;23.20;99.90
12287;DHT22;6206;53.100;11.098;2022-08-19T14:38:38;23.40;99.90
12287;DHT22;6206;53.100;11.098;2022-08-19T14:41:10;23.60;99.90
12287;DHT22;6206;53.100;11.098;2022-08-19T14:43:37;23.50;99.90
12287;DHT22;6206;53.100;11.098;2022-08-19T14:46:04;23.20;99.90
12287;DHT22;6206;53.100;11.098;2022-08-19T14:48:32;23.10;99.90
12287;DHT22;6206;53.100;11.098;2022-08-19T14:50:59;23.20;99.90
12287;DHT22;6206;53.100;11.098;2022-08-19T14:53:25;23.30;99.90
12287;DHT22;6206;53.100;11.098;2022-08-19T14:55:52;23.40;99.90
12287;DHT22;6206;53.100;11.098;2022-08-19T14:58:19;23.60;99.90
12287;DHT22;6206;53.100;11.098;2022-08-19T15:00:46;23.50;99.90
12287;DHT22;6206;53.100;11.098;2022-08-19T15:03:12;23.50;99.90
12287;DHT22;6206;53.100;11.098;2022-08-19T15:05:40;23.60;99.90
12287;DHT22;6206;53.100;11.098;2022-08-19T15:08:07;23.60;99.90
12287;DHT22;6206;53.100;11.098;2022-08-19T15:10:34;23.80;99.90
12287;DHT22;6206;53.100;11.098;2022-08-19T15:13:00;23.80;99.90
12287;DHT22;6206;53.100;11.098;2022-08-19T15:15:27;23.80;99.90
12287;DHT22;6206;53.100;11.098;2022-08-19T15:17:54;23.80;99.90
12287;DHT22;6206;53.100;11.098;2022-08-19T15:20:22;23.50;99.90
12287;DHT22;6206;53.100;11.098;2022-08-19T15:22:50;23.70;99.90
12287;DHT22;6206;53.100;11.098;2022-08-19T15:25:18;23.90;99.90
12287;DHT22;6206;53.100;11.098;2022-08-19T15:27:45;23.80;99.90
12287;DHT22;6206;53.100;11.098;2022-08-19T15:30:18;23.60;99.90
12287;DHT22;6206;53.100;11.098;2022-08-19T15:32:46;23.80;99.90
12287;DHT22;6206;53.100;11.098;2022-08-19T15:35:13;23.80;99.90
12287;DHT22;6206;53.100;11.098;2022-08-19T15:37:40;24.00;99.90